Terminal Aerodrome Forecast
Issued by NWS Corpus Christi, TX

Home | Current Version | Previous Version | Text Only | Print | Product List | Glossary On
Versions: 1 2 3 4 5 6 7 8 9 10 11 12 13 14 15 16
000
FTUS44 KCRP 271121
TAFCRP
TAF
KCRP 271121Z 2712/2812 16012KT P6SM OVC016
      TEMPO 2712/2714 5SM BR
     FM271400 17018G25KT P6SM SCT018 BKN250
      TEMPO 2714/2716 BKN018
     FM271900 14020G28KT P6SM FEW035 SCT250
     FM280300 15015G22KT P6SM OVC015
     FM280600 16014KT P6SM OVC012=

USA.gov is the U.S. government's official web portal to all federal, state and local government web resources and services.